createdAt,value
2022-09-27T00:00:11.900Z,961.71
2022-09-27T00:01:11.908Z,961.72
2022-09-27T00:02:11.930Z,961.66
2022-09-27T00:03:11.939Z,961.68
2022-09-27T00:04:11.834Z,961.69
2022-09-27T00:05:11.864Z,961.67
2022-09-27T00:06:11.809Z,961.65
2022-09-27T00:07:11.885Z,961.67
2022-09-27T00:08:11.799Z,961.66
2022-09-27T00:09:11.796Z,961.62
2022-09-27T00:10:11.757Z,961.68
2022-09-27T00:11:11.729Z,961.61
2022-09-27T00:12:11.727Z,961.66
2022-09-27T00:13:11.715Z,961.64
2022-09-27T00:14:11.706Z,961.62
2022-09-27T00:15:11.727Z,961.64
2022-09-27T00:16:11.722Z,961.62
2022-09-27T00:17:11.659Z,961.58
2022-09-27T00:18:11.651Z,961.61
2022-09-27T00:19:11.706Z,961.57
2022-09-27T00:20:11.627Z,961.63
2022-09-27T00:21:11.623Z,961.56
2022-09-27T00:22:11.602Z,961.59
2022-09-27T00:23:11.624Z,961.58
2022-09-27T00:24:11.598Z,961.56
2022-09-27T00:25:11.607Z,961.58
2022-09-27T00:26:11.576Z,961.59
2022-09-27T00:27:11.560Z,961.56
2022-09-27T00:28:11.543Z,961.54
2022-09-27T00:29:11.578Z,961.57
2022-09-27T00:30:11.543Z,961.65
2022-09-27T00:31:11.615Z,961.63
2022-09-27T00:32:11.520Z,961.62
2022-09-27T00:33:11.511Z,961.65
2022-09-27T00:34:11.481Z,961.65
2022-09-27T00:35:11.614Z,961.67
2022-09-27T00:36:11.479Z,961.67
2022-09-27T00:37:11.434Z,961.64
2022-09-27T00:38:11.428Z,961.63
2022-09-27T00:39:11.439Z,961.67
2022-09-27T00:40:13.196Z,961.69
2022-09-27T00:41:11.464Z,961.72
2022-09-27T00:42:11.394Z,961.65
2022-09-27T00:43:11.380Z,961.69
2022-09-27T00:44:11.366Z,961.73
2022-09-27T00:45:11.351Z,961.70
2022-09-27T00:46:11.389Z,961.73
2022-09-27T00:47:11.350Z,961.72
2022-09-27T00:48:11.328Z,961.72
2022-09-27T00:49:11.317Z,961.67
2022-09-27T00:50:11.311Z,961.69
2022-09-27T00:51:11.281Z,961.70
2022-09-27T00:52:11.671Z,961.70
2022-09-27T00:53:11.263Z,961.70
2022-09-27T00:54:11.279Z,961.72
2022-09-27T00:55:11.239Z,961.75
2022-09-27T00:56:11.241Z,961.75
2022-09-27T00:57:11.260Z,961.72
2022-09-27T00:58:11.216Z,961.75
2022-09-27T00:59:11.301Z,961.72
2022-09-27T01:00:11.184Z,961.75
2022-09-27T01:01:11.196Z,961.80
2022-09-27T01:02:11.227Z,961.81
2022-09-27T01:03:11.174Z,961.85
2022-09-27T01:04:11.158Z,961.83
2022-09-27T01:05:11.118Z,961.83
2022-09-27T01:06:11.129Z,961.82
2022-09-27T01:07:11.103Z,961.85
2022-09-27T01:08:11.095Z,961.84
2022-09-27T01:09:11.105Z,961.88
2022-09-27T01:10:11.070Z,961.84
2022-09-27T01:11:11.084Z,961.90
2022-09-27T01:12:11.081Z,961.88
2022-09-27T01:13:11.037Z,961.87
2022-09-27T01:14:11.042Z,961.83
2022-09-27T01:15:11.007Z,961.85
2022-09-27T01:16:11.062Z,961.92
2022-09-27T01:17:11.004Z,961.95
2022-09-27T01:18:10.996Z,961.97
2022-09-27T01:19:11.047Z,961.97
2022-09-27T01:20:11.047Z,961.98
2022-09-27T01:21:10.956Z,961.99
2022-09-27T01:22:10.949Z,962.04
2022-09-27T01:23:10.936Z,962.06
2022-09-27T01:24:10.908Z,962.07
2022-09-27T01:25:10.917Z,962.10
2022-09-27T01:26:10.913Z,962.12
2022-09-27T01:27:10.906Z,962.12
2022-09-27T01:28:10.896Z,962.10
2022-09-27T01:29:10.949Z,962.19
2022-09-27T01:30:10.882Z,962.14
2022-09-27T01:31:10.925Z,962.20
2022-09-27T01:32:10.822Z,962.19
2022-09-27T01:33:10.848Z,962.18
2022-09-27T01:34:10.817Z,962.21
2022-09-27T01:35:10.799Z,962.19
2022-09-27T01:36:10.780Z,962.20
2022-09-27T01:37:10.773Z,962.18
2022-09-27T01:38:10.795Z,962.22
2022-09-27T01:39:10.860Z,962.23
2022-09-27T01:40:10.728Z,962.27
2022-09-27T01:41:10.730Z,962.28
2022-09-27T01:42:13.027Z,962.29
2022-09-27T01:43:10.733Z,962.31
2022-09-27T01:44:10.699Z,962.32
2022-09-27T01:45:10.687Z,962.31
2022-09-27T01:46:10.761Z,962.33
2022-09-27T01:47:10.653Z,962.32
2022-09-27T01:48:10.647Z,962.35
2022-09-27T01:49:10.683Z,962.36
2022-09-27T01:50:10.633Z,962.38
2022-09-27T01:51:10.628Z,962.37
2022-09-27T01:52:10.607Z,962.39
2022-09-27T01:53:10.596Z,962.41
2022-09-27T01:54:10.590Z,962.39
2022-09-27T01:55:10.598Z,962.43
2022-09-27T01:56:10.551Z,962.44
2022-09-27T01:57:10.556Z,962.37
2022-09-27T01:58:10.552Z,962.41
2022-09-27T01:59:10.584Z,962.49
2022-09-27T02:00:10.515Z,962.51
2022-09-27T02:01:10.598Z,962.46
2022-09-27T02:02:10.555Z,962.49
2022-09-27T02:03:10.513Z,962.49
2022-09-27T02:04:10.476Z,962.51
2022-09-27T02:05:10.445Z,962.48
2022-09-27T02:06:12.555Z,962.49
2022-09-27T02:07:10.431Z,962.51
2022-09-27T02:08:10.451Z,962.51
2022-09-27T02:09:10.535Z,962.49
2022-09-27T02:10:10.404Z,962.48
2022-09-27T02:11:10.394Z,962.55
2022-09-27T02:12:10.374Z,962.48
2022-09-27T02:13:10.401Z,962.49
2022-09-27T02:14:10.349Z,962.49
2022-09-27T02:15:10.337Z,962.52
2022-09-27T02:16:10.364Z,962.51
2022-09-27T02:17:10.425Z,962.54
2022-09-27T02:18:10.340Z,962.54
2022-09-27T02:19:10.322Z,962.48
2022-09-27T02:20:10.297Z,962.55
2022-09-27T02:21:10.272Z,962.55
2022-09-27T02:22:10.266Z,962.56
2022-09-27T02:23:10.275Z,962.54
2022-09-27T02:24:10.250Z,962.52
2022-09-27T02:25:10.224Z,962.57
2022-09-27T02:26:10.223Z,962.55
2022-09-27T02:27:10.228Z,962.56
2022-09-27T02:28:10.230Z,962.59
2022-09-27T02:29:10.272Z,962.61
2022-09-27T02:30:10.718Z,962.58
2022-09-27T02:31:10.281Z,962.67
2022-09-27T02:32:10.146Z,962.65
2022-09-27T02:33:10.151Z,962.65
2022-09-27T02:34:10.147Z,962.68
2022-09-27T02:35:10.139Z,962.67
2022-09-27T02:36:10.113Z,962.66
2022-09-27T02:37:10.096Z,962.69
2022-09-27T02:38:10.103Z,962.66
2022-09-27T02:39:10.110Z,962.70
2022-09-27T02:40:10.075Z,962.68
2022-09-27T02:41:10.057Z,962.71
2022-09-27T02:42:10.038Z,962.66
2022-09-27T02:43:10.017Z,962.68
2022-09-27T02:44:10.031Z,962.69
2022-09-27T02:45:10.020Z,962.72
2022-09-27T02:46:10.088Z,962.75
2022-09-27T02:47:10.034Z,962.76
2022-09-27T02:48:09.981Z,962.76
2022-09-27T02:49:10.119Z,962.74
2022-09-27T02:50:10.071Z,962.74
2022-09-27T02:51:09.936Z,962.77
2022-09-27T02:52:09.933Z,962.77
2022-09-27T02:53:09.920Z,962.72
2022-09-27T02:54:09.927Z,962.80
2022-09-27T02:55:10.018Z,962.78
2022-09-27T02:56:09.865Z,962.77
2022-09-27T02:57:09.867Z,962.78
2022-09-27T02:58:09.911Z,962.77
2022-09-27T02:59:09.897Z,962.73
2022-09-27T03:00:09.982Z,962.74
2022-09-27T03:01:09.903Z,962.76
2022-09-27T03:02:13.623Z,962.74
2022-09-27T03:03:09.918Z,962.77
2022-09-27T03:04:09.806Z,962.73
2022-09-27T03:05:09.785Z,962.75
2022-09-27T03:06:09.796Z,962.75
2022-09-27T03:07:09.768Z,962.73
2022-09-27T03:08:09.753Z,962.76
2022-09-27T03:09:09.735Z,962.75
2022-09-27T03:10:09.720Z,962.78
2022-09-27T03:11:09.717Z,962.79
2022-09-27T03:12:09.693Z,962.80
2022-09-27T03:13:09.701Z,962.85
2022-09-27T03:14:09.682Z,962.79
2022-09-27T03:15:09.685Z,962.82
2022-09-27T03:16:09.671Z,962.82
2022-09-27T03:17:09.715Z,962.83
2022-09-27T03:18:09.662Z,962.82
2022-09-27T03:19:09.694Z,962.86
2022-09-27T03:20:09.762Z,962.83
2022-09-27T03:21:09.604Z,962.82
2022-09-27T03:22:09.587Z,962.81
2022-09-27T03:23:09.599Z,962.79
2022-09-27T03:24:09.569Z,962.81
2022-09-27T03:25:09.560Z,962.80
2022-09-27T03:26:12.851Z,962.82
2022-09-27T03:27:09.541Z,962.83
2022-09-27T03:28:09.528Z,962.80
2022-09-27T03:29:09.635Z,962.86
2022-09-27T03:30:09.509Z,962.86
2022-09-27T03:31:09.617Z,962.81
2022-09-27T03:32:09.488Z,962.79
2022-09-27T03:33:09.487Z,962.81
2022-09-27T03:34:09.458Z,962.77
2022-09-27T03:35:09.445Z,962.77
2022-09-27T03:36:09.436Z,962.87
2022-09-27T03:37:09.416Z,962.82
2022-09-27T03:38:09.470Z,962.86
2022-09-27T03:39:09.438Z,962.90
2022-09-27T03:40:09.383Z,962.89
2022-09-27T03:41:09.367Z,962.88
2022-09-27T03:42:09.363Z,962.91
2022-09-27T03:43:09.346Z,962.92
2022-09-27T03:44:09.368Z,962.93
2022-09-27T03:45:09.365Z,962.92
2022-09-27T03:46:09.374Z,962.91
2022-09-27T03:47:09.335Z,962.90
2022-09-27T03:48:09.290Z,962.92
2022-09-27T03:49:09.293Z,962.90
2022-09-27T03:50:09.290Z,962.94
2022-09-27T03:51:09.266Z,962.92
2022-09-27T03:52:09.272Z,962.95
2022-09-27T03:53:09.231Z,962.96
2022-09-27T03:54:09.213Z,962.97
2022-09-27T03:55:09.209Z,962.94
2022-09-27T03:56:09.199Z,962.97
2022-09-27T03:57:09.234Z,963.02
2022-09-27T03:58:09.196Z,962.95
2022-09-27T03:59:09.182Z,962.95
2022-09-27T04:00:09.194Z,962.99
2022-09-27T04:01:09.205Z,963.03
2022-09-27T04:02:09.193Z,963.03
2022-09-27T04:03:09.178Z,963.05
2022-09-27T04:04:11.317Z,963.10
2022-09-27T04:05:09.088Z,963.08
2022-09-27T04:06:09.154Z,963.05
2022-09-27T04:07:09.120Z,963.09
2022-09-27T04:08:09.073Z,963.10
2022-09-27T04:09:09.121Z,963.12
2022-09-27T04:10:09.051Z,963.15
2022-09-27T04:11:09.054Z,963.15
2022-09-27T04:12:09.054Z,963.15
2022-09-27T04:13:09.068Z,963.18
2022-09-27T04:14:09.001Z,963.13
2022-09-27T04:15:09.007Z,963.16
2022-09-27T04:16:08.985Z,963.18
2022-09-27T04:17:09.084Z,963.17
2022-09-27T04:18:08.977Z,963.15
2022-09-27T04:19:09.044Z,963.15
2022-09-27T04:20:08.944Z,963.16
2022-09-27T04:21:08.934Z,963.14
2022-09-27T04:22:08.938Z,963.17
2022-09-27T04:23:08.901Z,963.19
2022-09-27T04:24:08.909Z,963.15
2022-09-27T04:25:08.876Z,963.20
2022-09-27T04:26:08.862Z,963.16
2022-09-27T04:27:08.973Z,963.17
2022-09-27T04:28:08.831Z,963.19
2022-09-27T04:29:08.947Z,963.22
2022-09-27T04:30:08.843Z,963.21
2022-09-27T04:31:08.926Z,963.24
2022-09-27T04:32:08.797Z,963.24
2022-09-27T04:33:08.801Z,963.26
2022-09-27T04:34:08.803Z,963.26
2022-09-27T04:35:08.786Z,963.23
2022-09-27T04:36:08.775Z,963.27
2022-09-27T04:37:08.744Z,963.26
2022-09-27T04:38:08.737Z,963.28
2022-09-27T04:39:08.853Z,963.29
2022-09-27T04:40:08.739Z,963.31
2022-09-27T04:41:08.690Z,963.32
2022-09-27T04:42:08.717Z,963.32
2022-09-27T04:43:08.669Z,963.29
2022-09-27T04:44:08.662Z,963.34
2022-09-27T04:45:08.707Z,963.31
2022-09-27T04:46:08.688Z,963.36
2022-09-27T04:47:08.632Z,963.36
2022-09-27T04:48:08.645Z,963.29
2022-09-27T04:49:08.632Z,963.36
2022-09-27T04:50:08.606Z,963.36
2022-09-27T04:51:08.653Z,963.35
2022-09-27T04:52:08.585Z,963.38
2022-09-27T04:53:08.570Z,963.39
2022-09-27T04:54:08.539Z,963.41
2022-09-27T04:55:08.543Z,963.42
2022-09-27T04:56:08.535Z,963.40
2022-09-27T04:57:08.546Z,963.44
2022-09-27T04:58:08.509Z,963.42
2022-09-27T04:59:10.687Z,963.45
2022-09-27T05:00:08.477Z,963.38
2022-09-27T05:01:08.579Z,963.39
2022-09-27T05:02:08.531Z,963.43
2022-09-27T05:03:08.463Z,963.42
2022-09-27T05:04:08.434Z,963.42
2022-09-27T05:05:08.439Z,963.42
2022-09-27T05:06:08.449Z,963.46
2022-09-27T05:07:08.405Z,963.49
2022-09-27T05:08:08.428Z,963.46
2022-09-27T05:09:08.441Z,963.48
2022-09-27T05:10:08.388Z,963.53
2022-09-27T05:11:08.391Z,963.51
2022-09-27T05:12:08.381Z,963.50
2022-09-27T05:13:08.348Z,963.45
2022-09-27T05:14:08.330Z,963.47
2022-09-27T05:15:08.309Z,963.48
2022-09-27T05:16:08.315Z,963.53
2022-09-27T05:17:08.399Z,963.49
2022-09-27T05:18:08.271Z,963.50
2022-09-27T05:19:08.265Z,963.52
2022-09-27T05:20:08.258Z,963.51
2022-09-27T05:21:08.253Z,963.53
2022-09-27T05:22:08.248Z,963.53
2022-09-27T05:23:08.232Z,963.51
2022-09-27T05:24:08.231Z,963.52
2022-09-27T05:25:08.211Z,963.51
2022-09-27T05:26:08.200Z,963.55
2022-09-27T05:27:08.224Z,963.55
2022-09-27T05:28:08.193Z,963.51
2022-09-27T05:29:08.200Z,963.58
2022-09-27T05:30:08.311Z,963.50
2022-09-27T05:31:08.175Z,963.54
2022-09-27T05:32:08.129Z,963.56
2022-09-27T05:33:08.156Z,963.51
2022-09-27T05:34:08.173Z,963.54
2022-09-27T05:35:08.094Z,963.58
2022-09-27T05:36:08.085Z,963.57
2022-09-27T05:37:08.112Z,963.60
2022-09-27T05:38:08.041Z,963.58
2022-09-27T05:39:08.043Z,963.58
2022-09-27T05:40:17.258Z,963.58
2022-09-27T05:41:08.103Z,963.59
2022-09-27T05:42:08.007Z,963.63
2022-09-27T05:43:08.065Z,963.66
2022-09-27T05:44:08.049Z,963.70
2022-09-27T05:45:07.989Z,963.69
2022-09-27T05:46:08.003Z,963.69
2022-09-27T05:47:08.086Z,963.68
2022-09-27T05:48:07.950Z,963.71
2022-09-27T05:49:07.928Z,963.68
2022-09-27T05:50:07.948Z,963.72
2022-09-27T05:51:07.927Z,963.76
2022-09-27T05:52:10.957Z,963.71
2022-09-27T05:53:08.031Z,963.71
2022-09-27T05:54:08.056Z,963.73
2022-09-27T05:55:07.902Z,963.73
2022-09-27T05:56:07.874Z,963.74
2022-09-27T05:57:07.895Z,963.75
2022-09-27T05:58:07.825Z,963.73
2022-09-27T05:59:07.820Z,963.76
2022-09-27T06:00:07.924Z,963.75
2022-09-27T06:01:07.788Z,963.75
2022-09-27T06:02:08.014Z,963.76
2022-09-27T06:03:07.981Z,963.76
2022-09-27T06:04:07.785Z,963.76
2022-09-27T06:05:07.786Z,963.74
2022-09-27T06:06:07.756Z,963.76
2022-09-27T06:07:07.719Z,963.79
2022-09-27T06:08:07.731Z,963.79
2022-09-27T06:09:07.995Z,963.79
2022-09-27T06:10:07.748Z,963.85
2022-09-27T06:11:08.095Z,963.83
2022-09-27T06:12:08.408Z,963.84
2022-09-27T06:13:07.827Z,963.86
2022-09-27T06:14:08.000Z,963.87
2022-09-27T06:15:07.645Z,963.87
2022-09-27T06:16:07.626Z,963.84
2022-09-27T06:17:07.623Z,963.86
2022-09-27T06:18:07.591Z,963.85
2022-09-27T06:19:07.614Z,963.83
2022-09-27T06:20:07.596Z,963.82
2022-09-27T06:21:07.571Z,963.80
2022-09-27T06:22:07.563Z,963.82
2022-09-27T06:23:07.604Z,963.88
2022-09-27T06:24:07.567Z,963.85
2022-09-27T06:25:07.560Z,963.92
2022-09-27T06:26:07.518Z,963.93
2022-09-27T06:27:07.508Z,963.92
2022-09-27T06:28:07.496Z,963.95
2022-09-27T06:29:07.503Z,963.93
2022-09-27T06:30:07.527Z,963.92
2022-09-27T06:31:07.521Z,963.93
2022-09-27T06:32:07.488Z,963.91
2022-09-27T06:33:07.432Z,963.92
2022-09-27T06:34:07.424Z,963.95
2022-09-27T06:35:07.444Z,963.94
2022-09-27T06:36:07.475Z,963.94
2022-09-27T06:37:07.399Z,963.95
2022-09-27T06:38:07.370Z,963.93
2022-09-27T06:39:07.359Z,963.98
2022-09-27T06:40:07.362Z,963.98
2022-09-27T06:41:07.386Z,963.98
2022-09-27T06:42:07.325Z,963.99
2022-09-27T06:43:07.346Z,963.93
2022-09-27T06:44:07.349Z,964.03
2022-09-27T06:45:07.307Z,964.05
2022-09-27T06:46:07.394Z,964.02
2022-09-27T06:47:07.367Z,964.03
2022-09-27T06:48:07.284Z,964.07
2022-09-27T06:49:07.297Z,964.06
2022-09-27T06:50:07.466Z,964.08
2022-09-27T06:51:07.359Z,964.09
2022-09-27T06:52:07.248Z,964.08
2022-09-27T06:53:07.220Z,964.09
2022-09-27T06:54:07.190Z,964.08
2022-09-27T06:55:07.242Z,964.13
2022-09-27T06:56:07.224Z,964.12
2022-09-27T06:57:07.173Z,964.13
2022-09-27T06:58:07.143Z,964.11
2022-09-27T06:59:07.154Z,964.15
2022-09-27T07:00:07.148Z,964.18
2022-09-27T07:01:07.240Z,964.20
2022-09-27T07:02:07.162Z,964.17
2022-09-27T07:03:07.121Z,964.20
2022-09-27T07:04:07.092Z,964.24
2022-09-27T07:05:07.101Z,964.31
2022-09-27T07:06:07.088Z,964.26
2022-09-27T07:07:07.052Z,964.23
2022-09-27T07:08:07.060Z,964.26
2022-09-27T07:09:07.050Z,964.19
2022-09-27T07:10:09.941Z,964.24
2022-09-27T07:11:07.049Z,964.29
2022-09-27T07:12:07.011Z,964.34
2022-09-27T07:13:06.994Z,964.33
2022-09-27T07:14:06.979Z,964.33
2022-09-27T07:15:06.969Z,964.32
2022-09-27T07:16:07.041Z,964.32
2022-09-27T07:17:07.013Z,964.34
2022-09-27T07:18:06.929Z,964.34
2022-09-27T07:19:06.939Z,964.31
2022-09-27T07:20:06.928Z,964.36
2022-09-27T07:21:06.945Z,964.41
2022-09-27T07:22:06.903Z,964.43
2022-09-27T07:23:06.929Z,964.40
2022-09-27T07:24:06.868Z,964.48
2022-09-27T07:25:07.125Z,964.46
2022-09-27T07:26:06.848Z,964.45
2022-09-27T07:27:07.770Z,964.48
2022-09-27T07:28:06.826Z,964.48
2022-09-27T07:29:06.825Z,964.50
2022-09-27T07:30:06.803Z,964.56
2022-09-27T07:31:06.859Z,964.52
2022-09-27T07:32:06.768Z,964.56
2022-09-27T07:33:06.799Z,964.62
2022-09-27T07:34:06.794Z,964.56
2022-09-27T07:35:06.749Z,964.61
2022-09-27T07:36:06.727Z,964.59
2022-09-27T07:37:06.747Z,964.67
2022-09-27T07:38:06.714Z,964.64
2022-09-27T07:39:06.725Z,964.68
2022-09-27T07:40:06.705Z,964.69
2022-09-27T07:41:06.671Z,964.78
2022-09-27T07:42:06.655Z,964.75
2022-09-27T07:43:06.659Z,964.76
2022-09-27T07:44:06.660Z,964.80
2022-09-27T07:45:09.083Z,964.77
2022-09-27T07:46:06.666Z,964.80
2022-09-27T07:47:06.623Z,964.83
2022-09-27T07:48:06.596Z,964.85
2022-09-27T07:49:06.604Z,964.86
2022-09-27T07:50:06.576Z,964.88
2022-09-27T07:51:06.572Z,964.87
2022-09-27T07:52:06.561Z,964.90
2022-09-27T07:53:06.527Z,964.95
2022-09-27T07:54:08.762Z,965.00
2022-09-27T07:55:06.558Z,964.91
2022-09-27T07:56:06.548Z,964.96
2022-09-27T07:57:06.495Z,964.98
2022-09-27T07:58:06.497Z,965.00
2022-09-27T07:59:06.488Z,964.93
2022-09-27T08:00:06.499Z,964.95
2022-09-27T08:01:06.510Z,964.98
2022-09-27T08:02:06.518Z,965.01
2022-09-27T08:03:06.440Z,964.99
2022-09-27T08:04:06.417Z,964.95
2022-09-27T08:05:06.483Z,965.02
2022-09-27T08:06:06.448Z,965.02
2022-09-27T08:07:06.378Z,965.01
2022-09-27T08:08:06.397Z,965.05
2022-09-27T08:09:06.369Z,965.11
2022-09-27T08:10:06.352Z,965.05
2022-09-27T08:11:06.356Z,965.06
2022-09-27T08:12:06.318Z,965.08
2022-09-27T08:13:06.306Z,965.09
2022-09-27T08:14:06.310Z,965.12
2022-09-27T08:15:06.329Z,965.13
2022-09-27T08:16:06.319Z,965.11
2022-09-27T08:17:06.281Z,965.12
2022-09-27T08:18:06.272Z,965.19
2022-09-27T08:19:06.259Z,965.18
2022-09-27T08:20:06.265Z,965.19
2022-09-27T08:21:06.237Z,965.22
2022-09-27T08:22:06.236Z,965.17
2022-09-27T08:23:06.198Z,965.20
2022-09-27T08:24:06.186Z,965.21
2022-09-27T08:25:06.186Z,965.20
2022-09-27T08:26:06.244Z,965.20
2022-09-27T08:27:11.361Z,965.27
2022-09-27T08:28:06.137Z,965.25
2022-09-27T08:29:06.154Z,965.25
2022-09-27T08:30:06.127Z,965.23
2022-09-27T08:31:06.130Z,965.27
2022-09-27T08:32:06.129Z,965.28
2022-09-27T08:33:06.078Z,965.27
2022-09-27T08:34:06.156Z,965.33
2022-09-27T08:35:06.068Z,965.31
2022-09-27T08:36:06.054Z,965.32
2022-09-27T08:37:06.091Z,965.37
2022-09-27T08:38:06.147Z,965.33
2022-09-27T08:39:06.044Z,965.37
2022-09-27T08:40:06.039Z,965.39
2022-09-27T08:41:06.011Z,965.47
2022-09-27T08:42:06.023Z,965.42
2022-09-27T08:43:05.988Z,965.51
2022-09-27T08:44:05.977Z,965.48
2022-09-27T08:45:05.968Z,965.45
2022-09-27T08:46:05.981Z,965.49
2022-09-27T08:47:05.942Z,965.47
2022-09-27T08:48:05.921Z,965.50
2022-09-27T08:49:05.959Z,965.50
2022-09-27T08:50:06.122Z,965.52
2022-09-27T08:51:05.893Z,965.51
2022-09-27T08:52:05.882Z,965.54
2022-09-27T08:53:05.917Z,965.51
2022-09-27T08:54:05.853Z,965.51
2022-09-27T08:55:05.861Z,965.58
2022-09-27T08:56:05.872Z,965.61
2022-09-27T08:57:05.824Z,965.55
2022-09-27T08:58:05.836Z,965.62
2022-09-27T08:59:05.830Z,965.59
2022-09-27T09:00:05.801Z,965.60
2022-09-27T09:01:05.798Z,965.61
2022-09-27T09:02:05.835Z,965.62
2022-09-27T09:03:05.781Z,965.57
2022-09-27T09:04:05.795Z,965.60
2022-09-27T09:05:05.766Z,965.70
2022-09-27T09:06:05.708Z,965.67
2022-09-27T09:07:05.706Z,965.70
2022-09-27T09:08:05.690Z,965.66
2022-09-27T09:09:05.707Z,965.70
2022-09-27T09:10:05.674Z,965.70
2022-09-27T09:11:05.697Z,965.76
2022-09-27T09:12:05.688Z,965.74
2022-09-27T09:13:05.651Z,965.78
2022-09-27T09:14:07.451Z,965.73
2022-09-27T09:15:05.613Z,965.71
2022-09-27T09:16:05.637Z,965.77
2022-09-27T09:17:05.668Z,965.81
2022-09-27T09:18:06.478Z,965.80
2022-09-27T09:19:05.574Z,965.85
2022-09-27T09:20:05.585Z,965.84
2022-09-27T09:21:05.542Z,965.83
2022-09-27T09:22:05.542Z,965.88
2022-09-27T09:23:05.553Z,965.88
2022-09-27T09:24:05.525Z,965.92
2022-09-27T09:25:05.501Z,965.85
2022-09-27T09:26:06.833Z,965.90
2022-09-27T09:27:05.488Z,965.90
2022-09-27T09:28:05.520Z,965.89
2022-09-27T09:29:05.495Z,965.94
2022-09-27T09:30:05.454Z,965.97
2022-09-27T09:31:05.444Z,965.94
2022-09-27T09:32:05.518Z,965.96
2022-09-27T09:33:05.421Z,966.05
2022-09-27T09:34:05.422Z,966.00
2022-09-27T09:35:05.405Z,966.02
2022-09-27T09:36:05.384Z,966.06
2022-09-27T09:37:05.376Z,965.99
2022-09-27T09:38:05.375Z,966.01
2022-09-27T09:39:05.987Z,966.03
2022-09-27T09:40:08.908Z,966.04
2022-09-27T09:41:05.342Z,966.06
2022-09-27T09:42:05.372Z,966.02
2022-09-27T09:43:05.315Z,966.01
2022-09-27T09:44:05.353Z,966.04
2022-09-27T09:45:05.282Z,966.12
2022-09-27T09:46:05.326Z,966.04
2022-09-27T09:47:05.272Z,966.08
2022-09-27T09:48:05.257Z,966.10
2022-09-27T09:49:05.301Z,966.12
2022-09-27T09:50:05.280Z,966.09
2022-09-27T09:51:05.220Z,966.11
2022-09-27T09:52:08.754Z,966.04
2022-09-27T09:53:05.219Z,966.03
2022-09-27T09:54:05.204Z,966.11
2022-09-27T09:55:05.197Z,966.08
2022-09-27T09:56:05.180Z,966.11
2022-09-27T09:57:05.265Z,966.09
2022-09-27T09:58:05.141Z,966.12
2022-09-27T09:59:05.140Z,966.12
2022-09-27T10:00:05.150Z,966.13
2022-09-27T10:01:05.158Z,966.14
2022-09-27T10:02:05.180Z,966.12
2022-09-27T10:03:05.102Z,966.17
2022-09-27T10:04:05.054Z,966.16
2022-09-27T10:05:07.923Z,966.16
2022-09-27T10:06:05.293Z,966.17
2022-09-27T10:07:05.178Z,966.16
2022-09-27T10:08:05.023Z,966.18
2022-09-27T10:09:05.029Z,966.19
2022-09-27T10:10:05.004Z,966.21
2022-09-27T10:11:05.001Z,966.25
2022-09-27T10:12:05.009Z,966.19
2022-09-27T10:13:04.963Z,966.20
2022-09-27T10:14:04.953Z,966.20
2022-09-27T10:15:05.001Z,966.24
2022-09-27T10:16:05.012Z,966.30
2022-09-27T10:17:04.932Z,966.23
2022-09-27T10:18:04.933Z,966.28
2022-09-27T10:19:04.893Z,966.32
2022-09-27T10:20:04.891Z,966.30
2022-09-27T10:21:04.888Z,966.28
2022-09-27T10:22:04.879Z,966.32
2022-09-27T10:23:04.866Z,966.29
2022-09-27T10:24:04.831Z,966.32
2022-09-27T10:25:04.832Z,966.35
2022-09-27T10:26:04.847Z,966.34
2022-09-27T10:27:04.844Z,966.34
2022-09-27T10:28:04.892Z,966.33
2022-09-27T10:29:04.798Z,966.35
2022-09-27T10:30:04.772Z,966.34
2022-09-27T10:31:04.774Z,966.39
2022-09-27T10:32:04.756Z,966.31
2022-09-27T10:33:04.752Z,966.35
2022-09-27T10:34:04.724Z,966.34
2022-09-27T10:35:04.703Z,966.34
2022-09-27T10:36:04.716Z,966.36
2022-09-27T10:37:04.692Z,966.33
2022-09-27T10:38:04.704Z,966.33
2022-09-27T10:39:04.662Z,966.39
2022-09-27T10:40:04.689Z,966.39
2022-09-27T10:41:04.675Z,966.41
2022-09-27T10:42:04.628Z,966.41
2022-09-27T10:43:04.614Z,966.48
2022-09-27T10:44:04.644Z,966.50
2022-09-27T10:45:04.615Z,966.45
2022-09-27T10:46:04.635Z,966.52
2022-09-27T10:47:04.564Z,966.46
2022-09-27T10:48:04.608Z,966.49
2022-09-27T10:49:04.587Z,966.47
2022-09-27T10:50:04.552Z,966.47
2022-09-27T10:51:05.400Z,966.51
2022-09-27T10:52:04.560Z,966.51
2022-09-27T10:53:04.527Z,966.54
2022-09-27T10:54:04.545Z,966.55
2022-09-27T10:55:04.592Z,966.50
2022-09-27T10:56:04.490Z,966.60
2022-09-27T10:57:04.486Z,966.54
2022-09-27T10:58:04.468Z,966.59
2022-09-27T10:59:04.449Z,966.56
2022-09-27T11:00:04.490Z,966.55
2022-09-27T11:01:04.467Z,966.58
2022-09-27T11:02:04.398Z,966.64
2022-09-27T11:03:04.389Z,966.58
2022-09-27T11:04:04.385Z,966.61
2022-09-27T11:05:04.430Z,966.63
2022-09-27T11:06:04.390Z,966.62
2022-09-27T11:07:04.367Z,966.63
2022-09-27T11:08:04.352Z,966.68
2022-09-27T11:09:04.321Z,966.64
2022-09-27T11:10:04.343Z,966.71
2022-09-27T11:11:04.312Z,966.69
2022-09-27T11:12:04.361Z,966.67
2022-09-27T11:13:04.280Z,966.73
2022-09-27T11:14:04.401Z,966.75
2022-09-27T11:15:04.275Z,966.78
2022-09-27T11:16:04.318Z,966.74
2022-09-27T11:17:04.255Z,966.74
2022-09-27T11:18:04.264Z,966.74
2022-09-27T11:19:04.241Z,966.76
2022-09-27T11:20:04.223Z,966.74
2022-09-27T11:21:04.177Z,966.75
2022-09-27T11:22:04.211Z,966.72
2022-09-27T11:23:04.167Z,966.75
2022-09-27T11:24:04.202Z,966.80
2022-09-27T11:25:04.182Z,966.77
2022-09-27T11:26:04.163Z,966.77
2022-09-27T11:27:04.114Z,966.80
2022-09-27T11:28:04.122Z,966.76
2022-09-27T11:29:04.099Z,966.78
2022-09-27T11:30:04.124Z,966.80
2022-09-27T11:31:04.114Z,966.79
2022-09-27T11:32:04.163Z,966.81
2022-09-27T11:33:04.125Z,966.79
2022-09-27T11:34:04.049Z,966.83
2022-09-27T11:35:04.036Z,966.86
2022-09-27T11:36:04.047Z,966.85
2022-09-27T11:37:04.004Z,966.86
2022-09-27T11:38:04.061Z,966.89
2022-09-27T11:39:03.994Z,966.86
2022-09-27T11:40:03.977Z,966.90
2022-09-27T11:41:03.959Z,966.90
2022-09-27T11:42:03.972Z,966.90
2022-09-27T11:43:03.938Z,966.92
2022-09-27T11:44:03.961Z,966.87
2022-09-27T11:46:17.865Z,966.88
2022-09-27T11:47:04.062Z,966.89
2022-09-27T11:48:04.058Z,966.87
2022-09-27T11:49:03.885Z,966.91
2022-09-27T11:50:03.913Z,966.90
2022-09-27T11:51:03.885Z,966.90
2022-09-27T11:52:03.853Z,966.90
2022-09-27T11:53:03.867Z,966.93
2022-09-27T11:54:03.825Z,966.96
2022-09-27T11:55:03.797Z,966.95
2022-09-27T11:56:03.825Z,966.95
2022-09-27T11:57:03.777Z,966.94
2022-09-27T11:58:03.773Z,966.96
2022-09-27T11:59:03.757Z,966.98
2022-09-27T12:00:03.751Z,966.89
2022-09-27T12:01:03.771Z,966.90
2022-09-27T12:02:03.768Z,966.93
2022-09-27T12:03:03.817Z,966.94
2022-09-27T12:04:03.705Z,966.96
2022-09-27T12:05:03.699Z,966.94
2022-09-27T12:06:07.447Z,966.96
2022-09-27T12:07:03.721Z,966.94
2022-09-27T12:08:03.674Z,966.98
2022-09-27T12:09:03.661Z,966.98
2022-09-27T12:10:03.664Z,966.97
2022-09-27T12:11:03.630Z,967.02
2022-09-27T12:12:03.644Z,966.98
2022-09-27T12:13:03.608Z,967.05
2022-09-27T12:14:03.653Z,967.01
2022-09-27T12:15:06.965Z,967.03
2022-09-27T12:16:03.622Z,966.94
2022-09-27T12:17:03.593Z,966.99
2022-09-27T12:18:03.565Z,966.98
2022-09-27T12:19:03.533Z,966.98
2022-09-27T12:20:03.639Z,966.96
2022-09-27T12:21:03.521Z,966.94
2022-09-27T12:22:03.500Z,966.96
2022-09-27T12:23:03.484Z,966.97
2022-09-27T12:24:03.517Z,966.97
2022-09-27T12:25:03.474Z,966.97
2022-09-27T12:26:03.481Z,966.97
2022-09-27T12:27:03.462Z,966.98
2022-09-27T12:28:03.451Z,967.01
2022-09-27T12:29:03.410Z,967.00